Time;durP1;ratioP1;P1;durP2;ratioP2;P2;SDS_P1;SDS_P2;PMS_P1;PMS_P2;Temp;Humidity;BMP_temperature;BMP_pressure;BME280_temperature;BME280_humidity;BME280_pressure;Samples;Min_cycle;Max_cycle;Signal;HPM_P1;HPM_P2
2022/07/12 00:00:08;;;;;;;4.78;3.70;;;17.00;96.50;;;16.12;70.35;97975.00;5031344;28;20445;-77
2022/07/12 00:02:34;;;;;;;4.60;3.55;;;17.00;96.80;;;16.10;70.74;97979.00;5032174;28;20911;-77
2022/07/12 00:05:00;;;;;;;5.75;3.40;;;16.90;97.20;;;16.08;70.79;97976.63;5032068;28;20407;-77
2022/07/12 00:07:26;;;;;;;4.25;3.25;;;16.90;97.40;;;16.04;70.81;97978.22;5032237;28;20399;-77
2022/07/12 00:09:52;;;;;;;7.03;3.88;;;16.80;97.70;;;16.08;71.31;97991.88;5031265;28;20409;-77
2022/07/12 00:12:19;;;;;;;5.00;3.75;;;16.90;98.20;;;15.99;70.98;97996.94;5031912;28;20426;-77
2022/07/12 00:14:45;;;;;;;5.15;3.60;;;16.80;98.20;;;15.90;71.61;97995.91;5032140;28;20403;-77
2022/07/12 00:17:11;;;;;;;4.32;3.45;;;16.70;98.80;;;15.85;72.00;97996.72;5032064;28;20600;-77
2022/07/12 00:19:37;;;;;;;5.07;3.72;;;16.70;99.30;;;15.91;72.02;97994.84;5031154;28;20505;-77
2022/07/12 00:22:03;;;;;;;4.97;3.42;;;16.70;99.50;;;15.86;71.92;97987.63;5031638;28;20399;-77
2022/07/12 00:24:29;;;;;;;3.80;3.35;;;16.70;99.60;;;15.82;72.08;97991.91;5031781;28;20411;-77
2022/07/12 00:26:55;;;;;;;4.72;3.38;;;16.70;99.90;;;15.78;72.36;97998.06;5031988;28;20422;-77
2022/07/12 00:29:22;;;;;;;4.20;3.65;;;16.60;99.90;;;15.79;72.25;97994.28;5030918;28;20430;-77
2022/07/12 00:31:48;;;;;;;4.22;3.30;;;16.70;99.90;;;15.81;72.31;97997.50;5031217;28;20493;-77
2022/07/12 00:34:14;;;;;;;5.13;3.78;;;16.60;99.90;;;15.78;72.57;97993.53;5031279;28;20423;-77
2022/07/12 00:36:40;;;;;;;5.50;3.50;;;16.60;99.90;;;15.68;72.88;97996.19;5031649;28;20482;-77
2022/07/12 00:39:06;;;;;;;3.83;3.42;;;16.60;99.90;;;15.76;72.61;97995.66;5030741;28;20418;-75
2022/07/12 00:41:32;;;;;;;4.40;3.45;;;16.60;99.90;;;15.71;72.90;97995.66;5031385;28;20879;-77
2022/07/12 00:43:58;;;;;;;4.77;3.20;;;16.50;99.90;;;15.66;72.98;97993.00;5046882;28;20445;-77
2022/07/12 00:46:25;;;;;;;3.53;3.00;;;16.50;99.90;;;15.63;72.92;97992.75;5031660;28;20406;-77
2022/07/12 00:48:53;;;;;;;4.80;3.50;;;16.50;99.90;;;15.62;73.05;97991.13;5030901;28;20773;-77
2022/07/12 00:51:19;;;;;;;3.58;3.17;;;16.50;99.90;;;15.55;73.20;97993.28;5031104;28;20812;-77
2022/07/12 00:53:46;;;;;;;3.73;2.93;;;16.40;99.90;;;15.55;73.35;97993.28;5031386;28;20537;-77
2022/07/12 00:56:13;;;;;;;4.47;3.58;;;16.40;99.90;;;15.48;73.56;97988.19;5030817;28;20476;-76
2022/07/12 00:58:40;;;;;;;4.30;3.30;;;16.40;99.90;;;15.51;73.38;97990.31;5030386;28;20413;-76
2022/07/12 01:01:07;;;;;;;4.75;3.50;;;16.40;99.90;;;15.54;73.61;97991.66;5030991;28;20738;-77
2022/07/12 01:03:35;;;;;;;5.67;3.37;;;16.40;99.90;;;15.49;73.44;97992.44;5031042;28;20449;-76
2022/07/12 01:06:01;;;;;;;3.55;2.80;;;16.30;99.90;;;15.45;73.92;97999.38;5031144;28;20773;-76
2022/07/12 01:08:27;;;;;;;3.90;3.10;;;16.30;99.90;;;15.45;73.95;97996.72;5030504;28;20399;-76
2022/07/12 01:10:54;;;;;;;4.85;3.47;;;16.40;99.90;;;15.51;73.94;97992.97;5030532;28;20482;-76
2022/07/12 01:13:20;;;;;;;5.25;3.65;;;16.40;99.90;;;15.49;73.99;97997.75;5031030;28;20465;-76
2022/07/12 01:15:48;;;;;;;3.78;3.05;;;16.30;99.90;;;15.42;74.10;97992.69;5030883;28;20816;-76
2022/07/12 01:18:15;;;;;;;9.80;3.50;;;16.30;99.90;;;15.41;74.33;97990.31;5030198;28;20406;-76
2022/07/12 01:20:43;;;;;;;6.38;3.47;;;16.20;99.90;;;15.37;74.82;97990.03;5030370;28;20905;-76
2022/07/12 01:23:11;;;;;;;4.83;3.57;;;16.20;99.90;;;15.39;74.72;97995.91;5030867;28;20476;-76
2022/07/12 01:25:37;;;;;;;3.58;3.13;;;16.30;99.90;;;15.43;74.81;97996.97;5030616;28;20465;-76
2022/07/12 01:28:04;;;;;;;5.22;3.25;;;16.30;99.90;;;15.43;74.86;97996.97;5030189;28;20778;-76
2022/07/12 01:30:30;;;;;;;5.07;3.63;;;16.30;99.90;;;15.41;74.57;97999.09;5030408;28;20406;-76
2022/07/12 01:32:57;;;;;;;3.72;3.30;;;16.30;99.90;;;15.31;75.14;97996.44;5030550;28;20818;-76
2022/07/12 01:35:24;;;;;;;3.47;3.00;;;16.20;99.90;;;15.35;75.09;97992.16;5030346;28;20464;-76
2022/07/12 01:37:50;;;;;;;3.25;2.88;;;16.20;99.90;;;15.34;75.09;97990.56;5030606;28;20808;-76
2022/07/12 01:40:18;;;;;;;4.10;3.38;;;16.20;99.90;;;15.23;75.35;97994.31;5029351;28;20901;-76
2022/07/12 01:42:44;;;;;;;3.50;3.20;;;16.10;99.90;;;15.25;75.53;97994.84;5030502;28;20403;-76
2022/07/12 01:45:12;;;;;;;3.83;3.42;;;16.10;99.90;;;15.19;75.63;97995.88;5030282;28;20403;-75
2022/07/12 01:47:39;;;;;;;4.30;2.87;;;16.10;99.90;;;15.18;75.76;97990.84;5030285;28;20399;-76
2022/07/12 01:50:07;;;;;;;3.50;3.20;;;16.10;99.90;;;15.15;75.91;97983.34;5029151;28;20943;-76
2022/07/12 01:52:34;;;;;;;3.97;3.55;;;16.00;99.90;;;15.13;75.82;97985.47;5030274;28;20410;-76
2022/07/12 01:55:01;;;;;;;4.15;3.25;;;16.00;99.90;;;15.17;75.64;97987.38;5030259;28;20404;-76
2022/07/12 01:57:29;;;;;;;3.47;2.80;;;16.00;99.90;;;15.04;75.86;97977.19;5030347;28;20407;-76
2022/07/12 01:59:56;;;;;;;3.95;3.08;;;15.90;99.90;;;15.06;76.10;97983.09;5029535;28;20422;-76
2022/07/12 02:02:25;;;;;;;3.25;2.95;;;15.90;99.90;;;15.08;76.08;97973.75;5030067;28;20403;-76
2022/07/12 02:04:51;;;;;;;4.20;3.35;;;16.00;99.90;;;15.01;75.99;97983.09;5030212;28;20533;-75
2022/07/12 02:07:17;;;;;;;2.95;2.65;;;15.90;99.90;;;14.93;76.31;97980.94;5029587;28;20407;-76
2022/07/12 02:09:43;;;;;;;5.32;3.05;;;15.80;99.90;;;14.94;76.57;97985.22;5029344;28;20472;-75
2022/07/12 02:12:09;;;;;;;3.85;2.60;;;15.80;99.90;;;14.88;76.58;97979.06;5029990;28;20884;-75
2022/07/12 02:14:36;;;;;;;3.03;2.53;;;15.80;99.90;;;14.86;76.69;97983.06;5029965;28;20409;-75
2022/07/12 02:17:02;;;;;;;2.97;2.70;;;15.70;99.90;;;14.89;76.50;97985.97;5029990;28;20411;-75
2022/07/12 02:19:28;;;;;;;3.45;2.50;;;15.80;99.90;;;14.90;76.23;97982.25;5029119;28;20804;-75
2022/07/12 02:21:54;;;;;;;5.07;2.73;;;15.80;99.90;;;14.93;76.66;97984.41;5029588;28;20411;-75
2022/07/12 02:24:20;;;;;;;3.08;2.55;;;15.80;99.90;;;14.85;76.59;97979.59;5029957;28;20498;-75
2022/07/12 02:26:46;;;;;;;3.47;2.88;;;15.80;99.90;;;14.78;76.94;97983.56;5029966;28;20533;-75
2022/07/12 02:29:12;;;;;;;3.47;2.55;;;15.70;99.90;;;14.73;76.98;97971.81;5029184;28;20403;-75
2022/07/12 02:31:39;;;;;;;4.13;2.67;;;15.60;99.90;;;14.70;76.95;97976.88;5029861;28;20407;-76
2022/07/12 02:34:06;;;;;;;2.70;2.50;;;15.60;99.90;;;14.68;77.20;97976.34;5029765;28;20900;-75
2022/07/12 02:36:33;;;;;;;4.20;2.50;;;15.60;99.90;;;14.64;77.12;97970.75;5029865;28;20946;-75
2022/07/12 02:39:02;;;;;;;4.32;2.50;;;15.50;99.90;;;14.61;77.58;97976.59;5028933;28;20422;-75
2022/07/12 02:41:29;;;;;;;4.10;2.70;;;15.50;99.90;;;14.64;77.52;97984.06;5029604;28;20407;-75
2022/07/12 02:43:56;;;;;;;2.80;2.50;;;15.50;99.90;;;14.63;77.25;97979.81;5029706;28;20407;-75
2022/07/12 02:46:22;;;;;;;4.70;2.60;;;15.60;99.90;;;14.64;77.15;97977.94;5028094;28;20399;-75
2022/07/12 02:48:49;;;;;;;4.20;2.70;;;15.50;99.90;;;14.59;77.31;97978.72;5029033;28;20761;-75
2022/07/12 02:51:15;;;;;;;3.40;2.63;;;15.50;99.90;;;14.55;77.51;97977.66;5029399;28;20946;-75
2022/07/12 02:53:41;;;;;;;2.83;2.42;;;15.40;99.90;;;14.49;77.90;97977.91;5029609;28;20407;-75
2022/07/12 02:56:08;;;;;;;3.50;2.60;;;15.40;99.90;;;14.52;77.97;97978.16;5029707;28;20414;-75
2022/07/12 02:58:34;;;;;;;3.67;2.95;;;15.40;99.90;;;14.54;77.38;97975.25;5028917;28;20422;-75
2022/07/12 03:01:01;;;;;;;3.17;2.88;;;15.40;99.90;;;14.46;77.83;97973.06;5029287;28;20430;-75
2022/07/12 03:03:27;;;;;;;3.00;2.70;;;15.30;99.90;;;14.45;77.67;97972.28;5029594;28;20434;-75
2022/07/12 03:05:54;;;;;;;3.80;2.80;;;15.40;99.90;;;14.40;77.94;97974.94;5029513;28;20490;-76
2022/07/12 03:08:20;;;;;;;2.75;2.55;;;15.30;99.90;;;14.39;78.03;97976.00;5028900;28;20403;-76
2022/07/12 03:10:46;;;;;;;2.60;2.40;;;15.30;99.90;;;14.38;77.64;97981.53;5028001;28;20409;-76
2022/07/12 03:13:12;;;;;;;3.65;2.50;;;15.30;99.90;;;14.32;78.00;97983.38;5044665;28;20806;-77
2022/07/12 03:15:38;;;;;;;5.85;2.50;;;15.20;99.90;;;14.40;78.03;97990.09;5029410;28;20403;-76
2022/07/12 03:18:04;;;;;;;3.28;2.40;;;15.30;99.90;;;14.38;78.25;97984.19;5028749;28;20407;-77
2022/07/12 03:20:31;;;;;;;3.35;2.53;;;15.30;99.90;;;14.34;77.93;97992.72;5032207;28;20415;-76
2022/07/12 03:22:58;;;;;;;2.95;2.33;;;15.20;99.90;;;14.27;78.32;97992.16;5033085;28;20450;-76
2022/07/12 03:25:24;;;;;;;2.87;2.47;;;15.20;99.90;;;14.27;78.34;97991.38;5033088;28;20442;-76
2022/07/12 03:27:51;;;;;;;2.83;2.20;;;15.10;99.90;;;14.27;78.49;97989.50;5032926;28;20426;-76
2022/07/12 03:30:17;;;;;;;4.00;2.40;;;15.10;99.90;;;14.29;78.42;97990.03;5032099;28;20403;-76
2022/07/12 03:32:44;;;;;;;2.22;2.03;;;15.20;99.90;;;14.29;78.40;97999.88;5032943;28;20506;-76
2022/07/12 03:35:10;;;;;;;3.45;2.40;;;15.10;99.90;;;14.29;78.26;98003.34;5032966;28;20406;-76
2022/07/12 03:37:43;;;;;;;2.40;2.20;;;15.20;99.90;;;14.27;78.38;98007.34;5032849;28;20399;-76
2022/07/12 03:40:14;;;;;;;2.80;2.10;;;15.20;99.90;;;14.31;78.33;98011.06;5088796;22;20468;-76
2022/07/12 03:42:40;;;;;;;2.40;2.20;;;15.20;99.90;;;14.32;78.54;98012.69;5092943;28;20401;-75
2022/07/12 03:45:07;;;;;;;2.38;2.15;;;15.20;99.90;;;14.32;78.39;98016.16;5092896;28;20926;-74
2022/07/12 03:47:40;;;;;;;2.50;2.30;;;15.20;99.90;;;14.29;78.53;98021.97;5088660;28;20424;-74
2022/07/12 03:50:08;;;;;;;2.93;2.20;;;15.20;99.90;;;14.26;78.57;98019.03;5076917;28;20964;-75
2022/07/12 03:52:34;;;;;;;2.40;2.20;;;15.20;99.90;;;14.22;78.59;98020.59;5074339;28;20423;-76
2022/07/12 03:55:02;;;;;;;2.38;2.17;;;15.10;99.90;;;14.29;78.88;98023.84;5072033;28;20432;-76
2022/07/12 03:57:30;;;;;;;5.25;2.60;;;15.20;99.90;;;14.30;78.76;98028.91;5072092;28;20402;-76
2022/07/12 03:59:56;;;;;;;3.43;2.13;;;15.20;99.90;;;14.22;78.54;98034.72;5071063;28;20457;-76
2022/07/12 04:02:23;;;;;;;4.63;2.53;;;15.10;99.90;;;14.15;79.14;98036.81;5071681;28;20400;-76
2022/07/12 04:04:49;;;;;;;2.60;2.20;;;15.00;99.90;;;14.19;79.45;98037.94;5071945;28;20403;-74
2022/07/12 04:07:15;;;;;;;2.65;2.38;;;15.10;99.90;;;14.20;79.23;98036.88;5054007;28;20403;-75
2022/07/12 04:09:42;;;;;;;3.47;2.75;;;15.10;99.90;;;14.15;79.25;98041.34;5070532;28;20394;-75
2022/07/12 04:12:08;;;;;;;2.55;2.35;;;15.00;99.90;;;14.15;79.38;98041.34;5071285;28;20399;-75
2022/07/12 04:14:36;;;;;;;3.08;2.50;;;15.00;99.90;;;14.22;79.51;98039.25;5071021;28;20407;-75
2022/07/12 04:17:02;;;;;;;3.72;2.50;;;15.10;99.90;;;14.25;79.42;98038.75;5071504;28;20892;-75
2022/07/12 04:19:31;;;;;;;3.03;2.35;;;15.10;99.90;;;14.19;79.36;98045.91;5052946;28;20459;-75
2022/07/12 04:21:57;;;;;;;2.90;2.60;;;15.10;99.90;;;14.23;79.63;98044.31;5071339;28;20678;-76
2022/07/12 04:24:23;;;;;;;2.83;2.23;;;15.10;99.90;;;14.22;79.53;98037.38;5071191;28;20461;-76
2022/07/12 04:26:49;;;;;;;3.17;2.10;;;15.10;99.90;;;14.22;79.54;98032.06;5070993;28;20404;-76
2022/07/12 04:29:15;;;;;;;2.67;2.20;;;15.10;99.90;;;14.22;79.40;98026.75;5069225;28;20410;-76
2022/07/12 04:31:42;;;;;;;3.77;2.60;;;15.10;99.90;;;14.25;79.32;98030.75;5073950;28;20414;-75
2022/07/12 04:34:08;;;;;;;3.13;2.83;;;15.10;99.90;;;14.31;79.44;98035.84;5081513;28;20398;-77
2022/07/12 04:36:34;;;;;;;3.13;2.50;;;15.20;99.90;;;14.35;79.13;98044.13;5071156;28;20423;-76
2022/07/12 04:39:01;;;;;;;2.65;2.45;;;15.20;99.90;;;14.38;79.23;98040.13;5067592;28;20467;-75
2022/07/12 04:41:27;;;;;;;3.78;2.70;;;15.20;99.90;;;14.44;79.29;98050.56;5068081;28;20420;-76
2022/07/12 04:43:52;;;;;;;2.47;2.23;;;15.30;99.90;;;14.47;79.03;98046.59;5070159;28;20825;-77
2022/07/12 04:46:18;;;;;;;2.92;2.38;;;15.30;99.90;;;14.50;79.15;98044.25;5070403;28;20480;-77
2022/07/12 04:48:46;;;;;;;2.40;2.20;;;15.40;99.90;;;14.56;78.78;98035.19;5068737;28;20777;-76
2022/07/12 04:51:12;;;;;;;4.87;2.70;;;15.40;99.90;;;14.61;79.00;98037.06;5062894;28;20892;-76
2022/07/12 04:53:38;;;;;;;2.95;2.50;;;15.50;99.90;;;14.66;78.89;98037.88;5069382;28;20400;-75
2022/07/12 04:56:04;;;;;;;2.40;2.20;;;15.50;99.90;;;14.76;79.03;98041.66;5070737;28;20411;-76
2022/07/12 04:58:30;;;;;;;2.78;2.22;;;15.60;99.90;;;14.86;78.66;98036.38;5067598;28;20415;-75
2022/07/12 05:00:56;;;;;;;2.40;2.20;;;15.70;99.90;;;14.93;78.73;98035.06;5069593;28;20474;-77
2022/07/12 05:03:26;;;;;;;3.40;2.50;;;15.70;99.90;;;15.04;78.10;98044.66;5070519;28;20408;-75
2022/07/12 05:05:54;;;;;;;2.88;2.30;;;15.80;99.90;;;15.14;77.81;98046.56;5071225;28;20400;-77
2022/07/12 05:08:20;;;;;;;2.63;2.42;;;15.90;99.90;;;15.24;77.67;98048.44;5070374;28;20498;-77
2022/07/12 05:10:46;;;;;;;2.67;2.30;;;16.00;99.90;;;15.34;77.35;98045.78;5052850;28;20490;-76
2022/07/12 05:13:12;;;;;;;3.03;2.50;;;16.10;99.90;;;15.43;76.86;98053.00;5070528;28;20420;-75
2022/07/12 05:15:38;;;;;;;3.42;2.58;;;16.20;99.90;;;15.53;76.60;98056.75;5071344;28;20427;-77
2022/07/12 05:18:04;;;;;;;4.43;2.77;;;16.30;99.90;;;15.60;76.47;98047.44;5069361;28;20502;-77
2022/07/12 05:20:30;;;;;;;4.90;2.88;;;16.40;99.90;;;15.69;76.45;98051.19;5070054;28;20418;-76
2022/07/12 05:22:58;;;;;;;3.47;2.63;;;16.50;99.90;;;15.79;76.06;98055.69;5070377;28;20398;-76
2022/07/12 05:25:24;;;;;;;3.22;2.92;;;16.50;99.90;;;15.87;75.94;98063.16;5070217;28;20491;-76
2022/07/12 05:27:50;;;;;;;4.05;2.80;;;16.60;99.90;;;15.93;75.92;98062.13;5070268;28;20411;-76
2022/07/12 05:30:15;;;;;;;5.65;2.80;;;16.70;99.90;;;16.02;75.62;98059.69;5069150;28;20396;-77
2022/07/12 05:32:41;;;;;;;4.00;2.90;;;16.80;99.90;;;16.10;75.50;98064.47;5070604;28;20446;-78
2022/07/12 05:35:08;;;;;;;4.55;3.10;;;16.90;99.90;;;16.16;75.32;98058.09;5069904;28;20428;-77
2022/07/12 05:37:34;;;;;;;2.87;2.67;;;16.90;99.90;;;16.22;75.16;98060.47;5070558;28;20454;-77
2022/07/12 05:40:02;;;;;;;2.97;2.67;;;17.00;99.90;;;16.30;74.83;98069.00;5069124;28;20473;-75
2022/07/12 05:42:28;;;;;;;4.57;3.30;;;17.00;99.90;;;16.37;74.55;98062.31;5069555;28;20404;-75
2022/07/12 05:44:54;;;;;;;4.97;3.10;;;17.10;99.90;;;16.44;74.42;98060.13;5068455;28;20422;-76
2022/07/12 05:47:19;;;;;;;4.73;3.10;;;17.20;99.90;;;16.49;74.38;98065.47;5070157;28;20508;-75
2022/07/12 05:49:46;;;;;;;2.97;2.63;;;17.30;99.90;;;16.52;73.96;98075.63;5069444;28;20399;-77
2022/07/12 05:54:56;;;;;;;3.72;2.38;;;17.30;99.90;;;16.55;73.84;98083.06;5070155;28;20426;-76
2022/07/12 05:57:23;;;;;;;2.80;2.60;;;17.30;99.90;;;16.56;73.49;98084.69;5070205;28;20420;-76
2022/07/12 05:59:49;;;;;;;2.72;2.40;;;17.30;99.90;;;16.58;73.70;98082.53;5069279;28;20461;-75
2022/07/12 06:02:15;;;;;;;3.13;2.50;;;17.30;99.90;;;16.60;73.48;98083.13;5070657;28;20416;-77
2022/07/12 06:04:41;;;;;;;2.90;2.00;;;17.40;99.90;;;16.63;73.38;98095.91;5075659;28;20438;-78
2022/07/12 06:07:07;;;;;;;3.00;2.05;;;17.30;99.90;;;16.64;73.39;98100.19;5071229;28;20510;-77
2022/07/12 06:09:33;;;;;;;3.33;2.00;;;17.40;99.90;;;16.67;73.06;98096.19;5068073;28;20419;-76
2022/07/12 06:11:58;;;;;;;2.90;2.30;;;17.40;99.90;;;16.69;72.55;98095.91;5067878;28;20490;-77
2022/07/12 06:14:26;;;;;;;2.70;2.10;;;17.40;99.90;;;16.71;72.81;98101.78;5069515;28;20413;-76
2022/07/12 06:16:52;;;;;;;3.22;2.22;;;17.40;99.90;;;16.72;72.80;98098.81;5071103;28;20439;-76
2022/07/12 06:19:18;;;;;;;2.13;1.93;;;17.40;99.90;;;16.75;72.53;98108.19;5068450;28;20462;-78
2022/07/12 06:21:44;;;;;;;2.97;2.15;;;17.50;99.90;;;16.76;72.26;98107.91;5069561;28;20402;-76
2022/07/12 06:24:10;;;;;;;2.08;1.80;;;17.50;99.90;;;16.79;71.67;98107.34;5069580;28;20957;-76
2022/07/12 06:26:36;;;;;;;2.15;1.70;;;17.50;99.90;;;16.81;71.22;98113.25;5067139;28;20408;-76
2022/07/12 06:29:02;;;;;;;5.88;1.95;;;17.50;99.90;;;16.83;71.50;98113.78;5068588;28;20946;-76
2022/07/12 06:31:29;;;;;;;2.75;1.63;;;17.50;99.90;;;16.88;70.61;98105.72;5069283;28;20449;-76
2022/07/12 06:33:55;;;;;;;2.43;1.60;;;17.60;99.90;;;16.94;70.12;98106.50;5069255;28;20479;-76
2022/07/12 06:36:21;;;;;;;1.97;1.67;;;17.60;99.90;;;17.00;69.48;98113.41;5068199;28;20970;-76
2022/07/12 06:38:47;;;;;;;2.17;1.40;;;17.70;99.90;;;17.07;69.64;98110.44;5068383;28;20483;-76
2022/07/12 06:41:13;;;;;;;2.55;1.73;;;17.80;99.90;;;17.19;68.08;98108.25;5068909;28;20498;-76
2022/07/12 06:43:39;;;;;;;2.20;1.60;;;17.80;99.90;;;17.22;68.15;98107.69;5069150;28;20399;-76
2022/07/12 06:46:05;;;;;;;1.90;1.40;;;17.90;99.90;;;17.26;67.60;98109.56;5069162;28;20430;-76
2022/07/12 06:48:32;;;;;;;2.83;1.30;;;18.00;99.20;;;17.32;66.29;98115.66;5068542;28;20412;-76
2022/07/12 06:50:58;;;;;;;2.10;1.48;;;18.00;97.30;;;17.33;65.54;98119.94;5068835;28;20407;-76
2022/07/12 06:53:24;;;;;;;3.00;1.40;;;18.00;96.40;;;17.37;65.56;98112.97;5068896;28;20435;-77
2022/07/12 06:55:50;;;;;;;1.80;1.35;;;18.00;96.00;;;17.40;65.53;98115.09;5073030;28;20893;-76
2022/07/12 06:58:16;;;;;;;4.20;1.70;;;18.10;95.90;;;17.41;65.49;98119.38;5065668;28;20411;-80
2022/07/12 07:00:42;;;;;;;1.70;1.20;;;18.10;95.50;;;17.44;65.39;98124.19;5070905;28;20905;-81
2022/07/12 07:03:08;;;;;;;2.20;1.25;;;18.10;95.40;;;17.47;65.19;98118.25;5072818;28;20814;-81
2022/07/12 07:05:38;;;;;;;1.85;1.30;;;18.10;95.20;;;17.53;64.97;98122.50;5072428;28;20502;-79
2022/07/12 07:08:05;;;;;;;2.85;1.40;;;18.20;94.80;;;17.57;64.29;98117.41;5071341;28;20434;-81
2022/07/12 07:10:31;;;;;;;2.35;1.30;;;18.20;94.00;;;17.59;63.92;98121.38;5072371;28;20825;-79
2022/07/12 07:12:57;;;;;;;2.78;1.30;;;18.30;93.30;;;17.63;63.89;98125.16;5071958;28;20415;-78
2022/07/12 07:15:23;;;;;;;2.78;1.50;;;18.30;93.20;;;17.64;63.39;98129.44;5072438;28;20408;-76
2022/07/12 07:17:50;;;;;;;2.37;1.60;;;18.30;92.80;;;17.74;62.62;98132.03;5072363;28;20391;-78
2022/07/12 07:20:16;;;;;;;2.70;1.48;;;18.40;92.00;;;17.78;62.41;98129.59;5066325;28;20407;-77
2022/07/12 07:22:43;;;;;;;1.77;1.30;;;18.40;91.60;;;17.80;62.80;98130.13;5071270;28;20486;-76
2022/07/12 07:25:09;;;;;;;1.85;1.20;;;18.40;91.70;;;17.82;62.93;98135.97;5072501;28;20423;-82
2022/07/12 07:27:35;;;;;;;2.00;1.23;;;18.50;91.90;;;17.94;61.93;98130.28;5073786;28;20420;-80
2022/07/12 07:32:46;;;;;;;1.50;1.10;;;18.60;91.20;;;18.01;62.55;98133.44;5075348;28;20394;-77
2022/07/12 07:35:11;;;;;;;1.40;1.10;;;18.70;91.30;;;18.09;62.29;98136.31;5072547;28;20399;-80
2022/07/12 07:37:37;;;;;;;2.27;0.97;;;18.70;91.10;;;18.16;61.53;98134.13;5054602;28;20901;-77
2022/07/12 07:40:07;;;;;;;0.80;0.80;;;18.80;90.40;;;18.19;61.45;98135.44;5071368;28;20424;-79
2022/07/12 07:42:33;;;;;;;1.20;1.00;;;18.80;90.20;;;18.24;61.01;98137.25;5072661;28;20399;-78
2022/07/12 07:44:58;;;;;;;1.42;0.85;;;18.90;89.90;;;18.28;60.91;98136.41;5094167;28;20406;-81
2022/07/12 07:47:24;;;;;;;0.93;0.80;;;18.90;89.10;;;18.36;59.83;98137.69;5094806;28;20420;-79
2022/07/12 07:49:54;;;;;;;1.00;0.90;;;19.00;87.60;;;18.40;59.35;98138.72;5093063;28;20405;-79
2022/07/12 07:52:20;;;;;;;0.83;0.80;;;19.00;86.40;;;18.46;59.74;98146.44;5092448;28;20394;-83
2022/07/12 07:54:45;;;;;;;1.17;0.90;;;19.10;86.70;;;18.49;59.17;98143.16;5092375;28;20406;-77
2022/07/12 07:57:13;;;;;;;2.40;0.90;;;19.10;85.70;;;18.57;59.23;98143.69;5092192;28;20406;-77
2022/07/12 07:59:39;;;;;;;0.75;0.70;;;19.10;85.60;;;18.62;59.25;98143.63;5077100;28;20415;-77
2022/07/12 08:02:05;;;;;;;0.98;0.82;;;19.20;85.50;;;18.69;59.43;98144.88;5072196;28;20441;-80
2022/07/12 08:04:31;;;;;;;0.70;0.70;;;19.30;85.80;;;18.83;59.35;98145.00;5071277;28;20415;-80
2022/07/12 08:06:58;;;;;;;1.63;0.77;;;19.40;85.80;;;18.96;58.79;98141.63;5054254;28;20412;-82
2022/07/12 08:09:24;;;;;;;1.38;0.70;;;19.50;84.90;;;19.12;57.74;98139.56;5071356;28;20487;-76
2022/07/12 08:11:50;;;;;;;0.63;0.63;;;19.70;83.10;;;19.23;57.29;98135.66;5070808;28;20407;-76
2022/07/12 08:14:17;;;;;;;1.30;0.70;;;19.80;82.10;;;19.33;55.13;98130.94;5070758;28;20416;-79
2022/07/12 08:16:43;;;;;;;0.70;0.68;;;19.90;80.10;;;19.36;55.86;98134.16;5073050;28;20419;-76
2022/07/12 08:19:09;;;;;;;0.70;0.63;;;19.90;79.30;;;19.37;56.21;98141.13;5070644;28;20434;-77
2022/07/12 08:21:35;;;;;;;2.85;1.00;;;20.00;79.50;;;19.41;56.37;98128.69;5071037;28;20411;-78
2022/07/12 08:24:01;;;;;;;5.20;1.33;;;20.00;79.70;;;19.42;56.36;98133.78;5071629;28;20439;-78
2022/07/12 08:26:27;;;;;;;0.70;0.60;;;20.00;79.70;;;19.44;55.37;98130.81;5069433;28;20403;-76
2022/07/12 08:28:53;;;;;;;1.00;0.75;;;20.00;78.30;;;19.57;54.56;98133.59;5069534;28;20412;-76
2022/07/12 08:31:20;;;;;;;1.05;0.63;;;20.10;76.80;;;19.62;55.06;98130.06;5070420;28;20974;-76
2022/07/12 08:33:46;;;;;;;1.30;0.80;;;20.20;77.30;;;19.78;55.43;98128.72;5052362;28;20774;-80
2022/07/12 08:36:12;;;;;;;1.00;0.80;;;20.30;77.80;;;19.92;55.16;98134.19;5071434;28;20454;-76
2022/07/12 08:38:40;;;;;;;3.03;1.20;;;20.50;77.50;;;20.18;53.88;98129.97;5063645;28;20879;-77
2022/07/12 08:41:07;;;;;;;56.73;5.80;;;20.70;75.80;;;20.31;53.46;98125.69;5070088;28;20408;-77
2022/07/12 08:43:35;;;;;;;2.92;1.15;;;20.80;75.00;;;20.47;53.50;98127.88;5070192;28;20440;-79
2022/07/12 08:46:05;;;;;;;1.67;0.90;;;21.00;75.00;;;20.72;53.23;98131.19;5069441;28;20777;-76
2022/07/12 08:48:33;;;;;;;1.20;0.80;;;21.20;74.50;;;20.78;51.56;98146.94;5069377;28;20499;-77
2022/07/12 08:51:05;;;;;;;2.38;1.10;;;21.30;72.20;;;20.91;52.22;98133.75;5069967;28;20399;-80
2022/07/12 08:53:32;;;;;;;2.05;0.98;;;21.40;72.70;;;20.97;52.48;98146.84;5070153;28;20970;-77
2022/07/12 08:55:58;;;;;;;1.15;0.90;;;21.50;72.90;;;21.02;52.18;98144.03;5070040;28;20946;-75
2022/07/12 08:58:24;;;;;;;4.10;1.00;;;21.50;72.60;;;21.07;51.65;98148.50;5067767;28;20430;-77
2022/07/12 09:00:51;;;;;;;1.05;0.85;;;21.60;71.80;;;21.11;51.92;98154.91;5070928;28;20905;-78
2022/07/12 09:03:18;;;;;;;2.07;0.80;;;21.60;72.00;;;21.21;52.19;98152.03;5070273;28;20423;-78
2022/07/12 09:05:51;;;;;;;1.70;0.88;;;21.70;72.40;;;21.35;52.32;98155.47;5069534;28;20403;-77
2022/07/12 09:08:18;;;;;;;1.23;0.88;;;21.80;72.50;;;21.51;51.82;98159.44;5068946;28;20484;-76
2022/07/12 09:10:57;;;;;;;1.13;0.80;;;22.00;72.00;;;21.67;51.71;98156.41;5069799;28;20966;-80
2022/07/12 09:13:52;;;;;;;1.13;1.00;;;22.10;71.60;;;21.69;50.92;98157.72;5070335;28;20404;-78
2022/07/12 09:16:20;;;;;;;1.13;1.00;;;22.20;70.20;;;21.65;50.75;98159.44;5052085;28;20785;-79
2022/07/12 09:18:47;;;;;;;3.17;1.17;;;22.20;69.90;;;21.68;50.34;98158.81;5069232;28;20863;-80
2022/07/12 09:21:25;;;;;;;1.25;1.00;;;22.20;69.40;;;21.66;49.73;98149.44;5068948;28;20489;-76
2022/07/12 09:23:53;;;;;;;1.42;0.98;;;22.20;68.80;;;21.61;49.13;98151.16;5069183;28;20821;-76
2022/07/12 09:26:20;;;;;;;1.65;0.88;;;22.10;67.60;;;21.63;49.52;98153.56;5070643;28;20410;-77
2022/07/12 09:28:50;;;;;;;1.30;0.90;;;22.10;68.00;;;21.69;49.94;98152.31;5071926;28;20493;-76
2022/07/12 09:31:16;;;;;;;1.20;0.90;;;22.20;68.50;;;21.85;50.02;98158.97;5070585;28;20916;-79
2022/07/12 09:36:56;;;;;;;0.88;0.77;;;22.60;68.40;;;22.28;48.10;98148.50;5069813;28;20445;-76
2022/07/12 09:39:24;;;;;;;1.30;0.82;;;22.80;66.20;;;22.45;47.73;98142.41;5079176;22;20429;-77
2022/07/12 09:41:51;;;;;;;0.70;0.70;;;22.90;65.40;;;22.54;47.04;98143.28;5055065;28;20418;-79
2022/07/12 09:44:19;;;;;;;1.65;0.65;;;23.10;64.80;;;22.47;46.61;98147.50;5060229;28;20418;-76
2022/07/12 09:46:46;;;;;;;0.95;0.80;;;23.00;63.90;;;22.43;46.37;98152.72;5059456;28;20406;-77
2022/07/12 09:49:13;;;;;;;1.00;0.90;;;22.90;63.60;;;22.55;46.38;98141.38;5056829;28;20412;-79
2022/07/12 09:51:43;;;;;;;0.80;0.60;;;23.00;63.60;;;22.50;46.54;98149.56;5035668;28;20804;-75
2022/07/12 09:54:15;;;;;;;0.83;0.70;;;23.00;63.30;;;22.52;45.84;98148.16;5041158;28;20413;-77
2022/07/12 09:56:42;;;;;;;0.65;0.50;;;23.00;62.90;;;22.52;46.66;98150.88;5049877;28;20409;-75
2022/07/12 09:59:13;;;;;;;0.75;0.55;;;23.00;63.50;;;22.61;46.90;98149.00;5032988;28;21834;-76
2022/07/12 10:01:40;;;;;;;0.93;0.82;;;23.10;63.70;;;22.55;47.13;98147.56;5035749;28;20432;-77
2022/07/12 10:04:08;;;;;;;2.97;0.77;;;23.10;64.00;;;22.31;46.47;98149.81;5051688;28;20401;-79
2022/07/12 10:06:34;;;;;;;0.77;0.70;;;22.90;62.80;;;22.07;47.14;98154.72;5036231;28;20500;-81
2022/07/12 10:09:00;;;;;;;1.27;0.70;;;22.70;63.40;;;21.87;47.70;98161.38;5040326;28;20514;-75
2022/07/12 10:11:27;;;;;;;0.60;0.60;;;22.50;64.20;;;21.71;48.58;98158.22;5047933;28;20421;-78
2022/07/12 10:13:54;;;;;;;0.60;0.60;;;22.30;65.30;;;21.83;49.35;98168.44;5046219;28;20407;-76
2022/07/12 10:16:28;;;;;;;0.63;0.63;;;22.30;66.70;;;22.11;47.48;98155.69;5040766;28;20401;-76
2022/07/12 10:19:24;;;;;;;0.65;0.60;;;22.60;64.70;;;22.27;47.56;98155.00;5042113;28;20424;-79
2022/07/12 10:21:51;;;;;;;2.42;0.70;;;22.70;64.60;;;22.49;45.53;98151.47;5038646;28;20412;-80
2022/07/12 10:24:45;;;;;;;1.10;0.60;;;23.00;62.90;;;22.75;45.66;98157.03;5034012;28;20414;-80
2022/07/12 10:27:30;;;;;;;1.77;0.90;;;23.30;61.80;;;22.94;45.55;98156.78;5037153;28;20507;-79